Time;durP1;ratioP1;P1;durP2;ratioP2;P2;SDS_P1;SDS_P2;PMS_P1;PMS_P2;Temp;Humidity;BMP_temperature;BMP_pressure;BME280_temperature;BME280_humidity;BME280_pressure;Samples;Min_cycle;Max_cycle;Signal;HPM_P1;HPM_P2
2022/01/13 00:01:11;;;;;;;252.60;26.17;;;;;;;;;;5061706;28;20493;-66
2022/01/13 00:03:37;;;;;;;324.20;29.25;;;;;;;;;;5053267;28;20094;-66
2022/01/13 00:06:03;;;;;;;268.60;27.13;;;;;;;;;;5049757;28;20037;-66
2022/01/13 00:08:29;;;;;;;256.75;28.08;;;;;;;;;;5051022;28;20025;-66
2022/01/13 00:10:55;;;;;;;318.40;25.70;;;;;;;;;;5055856;28;20025;-66
2022/01/13 00:13:25;;;;;;;268.13;24.85;;;;;;;;;;5052923;28;20060;-66
2022/01/13 00:16:37;;;;;;;325.75;27.85;;;;;;;;;;5050806;28;20502;-66
2022/01/13 00:18:39;;;;;;;250.15;29.50;;;;;;;;;;5062547;28;20029;-66
2022/01/13 00:21:29;;;;;;;282.40;27.35;;;;;;;;;;5058433;28;20031;-67
2022/01/13 00:23:58;;;;;;;286.25;27.02;;;;;;;;;;5054122;28;20036;-67
2022/01/13 00:26:26;;;;;;;292.48;26.33;;;;;;;;;;5052270;28;20032;-66
2022/01/13 00:28:53;;;;;;;282.98;28.67;;;;;;;;;;5057100;28;20111;-66
2022/01/13 00:31:25;;;;;;;258.73;24.42;;;;;;;;;;5061535;28;20036;-66
2022/01/13 00:33:54;;;;;;;298.88;30.05;;;;;;;;;;5062354;28;20089;-66
2022/01/13 00:36:20;;;;;;;301.45;27.77;;;;;;;;;;5057216;28;20402;-66
2022/01/13 00:38:46;;;;;;;324.83;28.38;;;;;;;;;;5047997;28;20041;-66
2022/01/13 00:41:12;;;;;;;277.67;26.13;;;;;;;;;;5058490;28;20115;-66
2022/01/13 00:43:41;;;;;;;260.13;26.60;;;;;;;;;;5053436;28;20121;-66
2022/01/13 00:46:08;;;;;;;319.73;29.40;;;;;;;;;;5047400;28;20065;-66
2022/01/13 00:48:34;;;;;;;298.92;28.38;;;;;;;;;;5051048;28;20020;-66
2022/01/13 00:51:00;;;;;;;295.05;27.77;;;;;;;;;;5063182;28;20174;-67
2022/01/13 00:53:26;;;;;;;275.95;27.05;;;;;;;;;;5056906;28;20048;-66
2022/01/13 00:55:58;;;;;;;310.48;31.90;;;;;;;;;;5055635;28;20032;-66
2022/01/13 00:58:26;;;;;;;321.65;29.02;;;;;;;;;;5049286;28;20056;-65
2022/01/13 01:00:52;;;;;;;356.85;31.33;;;;;;;;;;5061982;28;20025;-66
2022/01/13 01:03:18;;;;;;;272.75;29.40;;;;;;;;;;5047801;28;20075;-66
2022/01/13 01:05:44;;;;;;;260.25;27.85;;;;;;;;;;5051854;28;20032;-66
2022/01/13 01:08:10;;;;;;;292.30;26.90;;;;;;;;;;5048775;28;20037;-66
2022/01/13 01:10:38;;;;;;;281.55;29.15;;;;;;;;;;5054292;28;20029;-65
2022/01/13 01:13:11;;;;;;;271.27;28.60;;;;;;;;;;5062343;28;20033;-65
2022/01/13 01:15:38;;;;;;;292.13;27.00;;;;;;;;;;5070822;28;20498;-67
2022/01/13 01:18:13;;;;;;;352.67;27.77;;;;;;;;;;5055477;28;20029;-67
2022/01/13 01:20:49;;;;;;;311.13;28.35;;;;;;;;;;5058362;28;20017;-66
2022/01/13 01:23:20;;;;;;;270.27;27.75;;;;;;;;;;5057024;28;20029;-67
2022/01/13 01:25:59;;;;;;;299.02;28.80;;;;;;;;;;5071048;28;20074;-66
2022/01/13 01:28:35;;;;;;;265.95;27.92;;;;;;;;;;5058346;28;20035;-66
2022/01/13 01:31:01;;;;;;;292.52;29.08;;;;;;;;;;5064730;28;20041;-66
2022/01/13 01:33:27;;;;;;;291.30;28.10;;;;;;;;;;5058836;28;20462;-66
2022/01/13 01:35:56;;;;;;;295.50;31.13;;;;;;;;;;5054933;28;20087;-66
2022/01/13 01:38:22;;;;;;;303.23;29.42;;;;;;;;;;5049345;28;20059;-66
2022/01/13 01:40:48;;;;;;;313.75;30.40;;;;;;;;;;5055081;28;20056;-66
2022/01/13 01:43:14;;;;;;;407.23;34.70;;;;;;;;;;5054308;28;20053;-66
2022/01/13 01:45:48;;;;;;;321.58;30.98;;;;;;;;;;5055540;28;20063;-66
2022/01/13 01:48:19;;;;;;;325.38;31.33;;;;;;;;;;5048623;28;20028;-66
2022/01/13 01:50:54;;;;;;;351.20;30.67;;;;;;;;;;5053387;28;20509;-66
2022/01/13 01:53:20;;;;;;;380.63;30.92;;;;;;;;;;5054676;28;20029;-67
2022/01/13 01:55:46;;;;;;;359.13;29.05;;;;;;;;;;5049063;28;20025;-67
2022/01/13 01:58:12;;;;;;;310.17;26.25;;;;;;;;;;5051315;28;20033;-66
2022/01/13 02:00:38;;;;;;;359.85;30.02;;;;;;;;;;5058278;28;20030;-66
2022/01/13 02:03:05;;;;;;;327.02;29.92;;;;;;;;;;5051599;28;20020;-66
2022/01/13 02:05:31;;;;;;;348.35;31.23;;;;;;;;;;5062460;28;20088;-66
2022/01/13 02:07:57;;;;;;;371.48;32.05;;;;;;;;;;5057023;28;20032;-66
2022/01/13 02:10:23;;;;;;;358.20;31.15;;;;;;;;;;5050302;28;20032;-66
2022/01/13 02:12:53;;;;;;;425.77;34.03;;;;;;;;;;5053759;28;20028;-67
2022/01/13 02:17:48;;;;;;;415.65;34.72;;;;;;;;;;5051245;28;20116;-66
2022/01/13 02:20:20;;;;;;;425.48;32.35;;;;;;;;;;5048593;28;20029;-66
2022/01/13 02:22:46;;;;;;;406.92;35.25;;;;;;;;;;5053343;28;20032;-66
2022/01/13 02:25:14;;;;;;;393.55;31.17;;;;;;;;;;5043737;28;20032;-66
2022/01/13 02:27:40;;;;;;;375.13;32.88;;;;;;;;;;5047182;28;20115;-66
2022/01/13 02:30:06;;;;;;;448.35;36.15;;;;;;;;;;5039763;28;20135;-66
2022/01/13 02:32:32;;;;;;;326.67;32.45;;;;;;;;;;5039582;28;20106;-66
2022/01/13 02:34:58;;;;;;;339.52;32.30;;;;;;;;;;5035401;28;20037;-66
2022/01/13 02:37:24;;;;;;;380.95;33.38;;;;;;;;;;5034940;28;20057;-67
2022/01/13 02:39:50;;;;;;;458.95;34.92;;;;;;;;;;5035458;28;20482;-66
2022/01/13 02:42:16;;;;;;;461.48;34.50;;;;;;;;;;5045587;28;20120;-66
2022/01/13 02:45:01;;;;;;;443.65;36.53;;;;;;;;;;5048268;28;20115;-66
2022/01/13 02:50:08;;;;;;;;;;;;;;;;;;5058165;28;20040;-65
2022/01/13 02:52:34;;;;;;;576.25;40.67;;;;;;;;;;5052098;28;19909;-66
2022/01/13 02:55:00;;;;;;;502.23;40.38;;;;;;;;;;5059049;28;20539;-66
2022/01/13 02:57:26;;;;;;;458.27;38.53;;;;;;;;;;5057016;28;20035;-66
2022/01/13 02:59:52;;;;;;;477.45;37.08;;;;;;;;;;5053053;28;20516;-66
2022/01/13 03:02:18;;;;;;;461.77;40.30;;;;;;;;;;5052607;28;20506;-66
2022/01/13 03:04:48;;;;;;;591.05;40.03;;;;;;;;;;5063474;28;20024;-66
2022/01/13 03:07:14;;;;;;;507.17;39.70;;;;;;;;;;5048352;28;20040;-66
2022/01/13 03:09:41;;;;;;;516.22;40.45;;;;;;;;;;5054839;28;20025;-66
2022/01/13 03:12:08;;;;;;;513.25;43.53;;;;;;;;;;5053396;28;20032;-66
2022/01/13 03:14:34;;;;;;;533.55;41.40;;;;;;;;;;5057336;28;20120;-65
2022/01/13 03:17:00;;;;;;;468.83;39.33;;;;;;;;;;5060200;28;20033;-65
2022/01/13 03:19:26;;;;;;;535.20;43.90;;;;;;;;;;5053308;28;20094;-66
2022/01/13 03:21:52;;;;;;;426.33;37.78;;;;;;;;;;5050126;28;20120;-65
2022/01/13 03:24:18;;;;;;;592.55;42.70;;;;;;;;;;5049765;28;20459;-66
2022/01/13 03:26:46;;;;;;;573.53;42.58;;;;;;;;;;5055206;28;20076;-65
2022/01/13 03:31:39;;;;;;;588.35;44.20;;;;;;;;;;5052332;28;20029;-65
2022/01/13 03:34:05;;;;;;;440.48;38.45;;;;;;;;;;5065566;28;20162;-66
2022/01/13 03:36:33;;;;;;;532.15;41.05;;;;;;;;;;5063194;28;20044;-66
2022/01/13 03:38:59;;;;;;;530.53;39.15;;;;;;;;;;5048710;28;20518;-65
2022/01/13 03:41:25;;;;;;;546.90;38.92;;;;;;;;;;5052784;28;20518;-66
2022/01/13 03:43:53;;;;;;;547.28;43.55;;;;;;;;;;5048751;28;20032;-65
2022/01/13 03:46:19;;;;;;;603.65;41.17;;;;;;;;;;5050274;28;20183;-66
2022/01/13 03:48:45;;;;;;;467.80;37.78;;;;;;;;;;5059094;28;20124;-67
2022/01/13 03:51:12;;;;;;;569.88;42.80;;;;;;;;;;5057919;28;20058;-67
2022/01/13 03:53:56;;;;;;;452.63;36.95;;;;;;;;;;5055915;28;20033;-66
2022/01/13 03:56:41;;;;;;;559.72;42.28;;;;;;;;;;5060598;28;20032;-65
2022/01/13 03:59:07;;;;;;;470.83;37.10;;;;;;;;;;5053977;28;20024;-66
2022/01/13 04:01:42;;;;;;;496.95;37.60;;;;;;;;;;5047200;28;20427;-66
2022/01/13 04:04:08;;;;;;;427.65;40.88;;;;;;;;;;5053545;28;20055;-66
2022/01/13 04:06:34;;;;;;;459.58;38.55;;;;;;;;;;5049323;28;20451;-66
2022/01/13 04:09:00;;;;;;;480.88;39.70;;;;;;;;;;5053455;28;20036;-65
2022/01/13 04:11:29;;;;;;;650.17;48.08;;;;;;;;;;5054754;28;20079;-66
2022/01/13 04:13:56;;;;;;;560.85;36.55;;;;;;;;;;5052428;28;20025;-66
2022/01/13 04:16:27;;;;;;;580.03;41.83;;;;;;;;;;5060265;28;20024;-66
2022/01/13 04:18:54;;;;;;;453.03;39.00;;;;;;;;;;5050284;28;20025;-66
2022/01/13 04:21:22;;;;;;;485.83;36.95;;;;;;;;;;5060004;28;20279;-65
2022/01/13 04:23:49;;;;;;;508.27;39.42;;;;;;;;;;5059878;28;20029;-66
2022/01/13 04:26:21;;;;;;;517.67;38.90;;;;;;;;;;5055534;28;20063;-66
2022/01/13 04:28:51;;;;;;;534.83;40.03;;;;;;;;;;5054029;28;20040;-66
2022/01/13 04:31:17;;;;;;;492.33;40.85;;;;;;;;;;5056137;28;20064;-66
2022/01/13 04:33:43;;;;;;;534.25;41.17;;;;;;;;;;5058920;28;20053;-66
2022/01/13 04:36:09;;;;;;;456.55;38.28;;;;;;;;;;5052180;28;20116;-66
2022/01/13 04:38:35;;;;;;;543.08;41.13;;;;;;;;;;5052671;28;20040;-66
2022/01/13 04:41:01;;;;;;;564.50;39.17;;;;;;;;;;5061539;28;20025;-66
2022/01/13 04:43:31;;;;;;;456.40;36.88;;;;;;;;;;5055856;28;20024;-66
2022/01/13 04:45:57;;;;;;;518.95;43.00;;;;;;;;;;5061071;28;20217;-65
2022/01/13 04:48:24;;;;;;;531.10;42.10;;;;;;;;;;5053614;28;20109;-66
2022/01/13 04:50:50;;;;;;;511.20;39.90;;;;;;;;;;5047577;28;20032;-65
2022/01/13 04:53:16;;;;;;;543.08;42.63;;;;;;;;;;5061016;28;20041;-65
2022/01/13 04:55:57;;;;;;;455.83;36.60;;;;;;;;;;5051506;28;20424;-66
2022/01/13 04:58:23;;;;;;;508.98;38.90;;;;;;;;;;5063020;28;20040;-66
2022/01/13 05:00:49;;;;;;;544.85;38.95;;;;;;;;;;5058042;28;20048;-66
2022/01/13 05:03:15;;;;;;;472.92;38.83;;;;;;;;;;5045567;28;20513;-66
2022/01/13 05:05:41;;;;;;;532.95;41.55;;;;;;;;;;5060622;28;20029;-66
2022/01/13 05:08:07;;;;;;;425.23;35.10;;;;;;;;;;5046955;28;20497;-66
2022/01/13 05:10:33;;;;;;;473.73;36.92;;;;;;;;;;5049380;28;20064;-66
2022/01/13 05:12:59;;;;;;;546.38;42.33;;;;;;;;;;5054428;28;20056;-66
2022/01/13 05:15:27;;;;;;;548.72;39.90;;;;;;;;;;5056164;28;20033;-65
2022/01/13 05:20:28;;;;;;;479.02;37.17;;;;;;;;;;5067962;28;20044;-66
2022/01/13 05:22:54;;;;;;;521.42;40.85;;;;;;;;;;5053121;28;20037;-66
2022/01/13 05:25:21;;;;;;;606.22;46.33;;;;;;;;;;5057456;28;20025;-66
2022/01/13 05:27:47;;;;;;;515.97;37.75;;;;;;;;;;5062353;28;20040;-66
2022/01/13 05:30:15;;;;;;;541.05;38.10;;;;;;;;;;5053549;28;20041;-66
2022/01/13 05:32:41;;;;;;;531.72;39.22;;;;;;;;;;5052633;28;20026;-65
2022/01/13 05:35:07;;;;;;;482.33;37.15;;;;;;;;;;5052408;28;20033;-66
2022/01/13 05:37:33;;;;;;;450.30;37.65;;;;;;;;;;5050057;28;20036;-66
2022/01/13 05:40:00;;;;;;;405.83;38.47;;;;;;;;;;5056927;28;20648;-65
2022/01/13 05:42:27;;;;;;;540.65;40.38;;;;;;;;;;5047455;28;20025;-66
2022/01/13 05:44:53;;;;;;;477.15;35.22;;;;;;;;;;5055132;28;20570;-66
2022/01/13 05:47:21;;;;;;;493.15;38.88;;;;;;;;;;5048914;28;20067;-66
2022/01/13 05:49:48;;;;;;;440.83;35.03;;;;;;;;;;5050509;28;20033;-66
2022/01/13 05:52:15;;;;;;;430.40;34.67;;;;;;;;;;5050317;28;20108;-66
2022/01/13 05:54:41;;;;;;;450.23;34.95;;;;;;;;;;5054680;28;20041;-66
2022/01/13 05:57:07;;;;;;;596.88;38.65;;;;;;;;;;5060796;28;20123;-67
2022/01/13 05:59:35;;;;;;;432.42;34.67;;;;;;;;;;5055041;28;20036;-66
2022/01/13 06:02:01;;;;;;;516.55;39.53;;;;;;;;;;5057452;28;20096;-67
2022/01/13 06:04:27;;;;;;;493.15;38.67;;;;;;;;;;5056099;28;20034;-65
2022/01/13 06:06:53;;;;;;;426.05;34.92;;;;;;;;;;5057158;28;20048;-66
2022/01/13 06:09:19;;;;;;;529.38;37.78;;;;;;;;;;5060032;28;20405;-65
2022/01/13 06:11:55;;;;;;;576.90;42.28;;;;;;;;;;5060364;28;20032;-65
2022/01/13 06:14:21;;;;;;;448.90;35.05;;;;;;;;;;5053496;28;20027;-65
2022/01/13 06:16:48;;;;;;;458.95;33.75;;;;;;;;;;5052854;28;20127;-67
2022/01/13 06:19:14;;;;;;;523.30;38.67;;;;;;;;;;5069123;28;20040;-65
2022/01/13 06:21:40;;;;;;;519.70;44.60;;;;;;;;;;5053016;28;20387;-64
2022/01/13 06:24:06;;;;;;;554.28;38.63;;;;;;;;;;5047636;28;20489;-68
2022/01/13 06:26:32;;;;;;;504.80;41.08;;;;;;;;;;5052332;28;20033;-65
2022/01/13 06:28:58;;;;;;;422.58;36.08;;;;;;;;;;5067648;28;20324;-66
2022/01/13 06:31:24;;;;;;;391.10;34.83;;;;;;;;;;5049658;28;20040;-65
2022/01/13 06:33:50;;;;;;;470.42;38.30;;;;;;;;;;5043362;28;20036;-66
2022/01/13 06:36:16;;;;;;;467.92;37.72;;;;;;;;;;5065788;28;20036;-66
2022/01/13 06:38:43;;;;;;;520.55;40.50;;;;;;;;;;5053901;28;20414;-66
2022/01/13 06:41:09;;;;;;;516.10;36.90;;;;;;;;;;5050868;28;20025;-65
2022/01/13 06:43:36;;;;;;;532.92;41.38;;;;;;;;;;5044385;28;20048;-66
2022/01/13 06:46:02;;;;;;;559.10;40.13;;;;;;;;;;5044142;28;20510;-65
2022/01/13 06:48:28;;;;;;;427.40;38.20;;;;;;;;;;5033829;28;20043;-66
2022/01/13 06:50:54;;;;;;;434.67;39.55;;;;;;;;;;5045331;28;20575;-65
2022/01/13 06:53:21;;;;;;;471.13;40.40;;;;;;;;;;5047489;28;20026;-65
2022/01/13 06:55:48;;;;;;;466.55;38.83;;;;;;;;;;5047318;28;20021;-66
2022/01/13 06:58:14;;;;;;;410.50;38.92;;;;;;;;;;5066992;28;20367;-66
2022/01/13 07:00:40;;;;;;;477.80;39.03;;;;;;;;;;5053464;28;20064;-67
2022/01/13 07:03:06;;;;;;;392.75;37.03;;;;;;;;;;5052145;28;20041;-66
2022/01/13 07:05:32;;;;;;;364.45;34.88;;;;;;;;;;5052782;28;20029;-66
2022/01/13 07:07:58;;;;;;;460.80;38.97;;;;;;;;;;5056704;28;20056;-65
2022/01/13 07:10:24;;;;;;;478.05;37.25;;;;;;;;;;5054872;28;20032;-66
2022/01/13 07:12:50;;;;;;;436.13;38.97;;;;;;;;;;5052451;28;22247;-66
2022/01/13 07:15:16;;;;;;;388.95;37.13;;;;;;;;;;5060133;28;20123;-66
2022/01/13 07:17:43;;;;;;;441.63;38.00;;;;;;;;;;5041222;28;20030;-65
2022/01/13 07:20:09;;;;;;;499.52;42.97;;;;;;;;;;5035028;28;20056;-65
2022/01/13 07:22:37;;;;;;;495.65;38.72;;;;;;;;;;5051075;28;20025;-66
2022/01/13 07:25:03;;;;;;;413.50;37.75;;;;;;;;;;5048823;28;20021;-65
2022/01/13 07:27:29;;;;;;;423.98;38.85;;;;;;;;;;5049218;28;20494;-65
2022/01/13 07:29:55;;;;;;;450.42;41.40;;;;;;;;;;5050731;28;20033;-66
2022/01/13 07:32:21;;;;;;;453.13;37.95;;;;;;;;;;5043231;28;20135;-65
2022/01/13 07:34:47;;;;;;;351.02;34.20;;;;;;;;;;5046673;28;20127;-65
2022/01/13 07:37:13;;;;;;;507.88;39.05;;;;;;;;;;5048078;28;20124;-66
2022/01/13 07:39:39;;;;;;;489.85;39.60;;;;;;;;;;5046120;28;20457;-66
2022/01/13 07:42:06;;;;;;;396.70;36.75;;;;;;;;;;5050578;28;20138;-66
2022/01/13 07:44:32;;;;;;;450.52;41.85;;;;;;;;;;5048596;28;20060;-65
2022/01/13 07:47:00;;;;;;;415.70;39.90;;;;;;;;;;5039720;28;20039;-66
2022/01/13 07:49:26;;;;;;;451.20;39.20;;;;;;;;;;5034658;28;20481;-65
2022/01/13 07:51:52;;;;;;;414.08;39.88;;;;;;;;;;5050203;28;20025;-66
2022/01/13 07:54:19;;;;;;;382.52;37.58;;;;;;;;;;5051304;28;20089;-66
2022/01/13 07:56:45;;;;;;;426.73;38.13;;;;;;;;;;5070731;28;20033;-66
2022/01/13 07:59:11;;;;;;;496.35;43.33;;;;;;;;;;5054971;28;20401;-66
2022/01/13 08:01:37;;;;;;;454.75;41.38;;;;;;;;;;5044186;28;20032;-66
2022/01/13 08:04:03;;;;;;;403.95;37.50;;;;;;;;;;5047106;28;20025;-66
2022/01/13 08:06:29;;;;;;;412.63;37.70;;;;;;;;;;5045270;28;20034;-65
2022/01/13 08:08:55;;;;;;;419.45;42.05;;;;;;;;;;5043973;28;20044;-66
2022/01/13 08:11:21;;;;;;;499.00;44.67;;;;;;;;;;5050480;28;20287;-66
2022/01/13 08:13:47;;;;;;;390.58;40.33;;;;;;;;;;5055095;28;20025;-66
2022/01/13 08:16:16;;;;;;;421.70;40.40;;;;;;;;;;5045461;28;20049;-66
2022/01/13 08:21:26;;;;;;;462.25;43.90;;;;;;;;;;5050604;28;20040;-66
2022/01/13 08:23:52;;;;;;;495.98;44.72;;;;;;;;;;5046408;28;20029;-66
2022/01/13 08:26:19;;;;;;;476.95;43.22;;;;;;;;;;5050065;28;20033;-66
2022/01/13 08:28:45;;;;;;;454.23;44.53;;;;;;;;;;5047189;28;20050;-66
2022/01/13 08:31:11;;;;;;;396.52;40.13;;;;;;;;;;5049912;28;20051;-66
2022/01/13 08:33:39;;;;;;;456.48;44.47;;;;;;;;;;5062914;28;20038;-66
2022/01/13 08:36:05;;;;;;;388.85;44.65;;;;;;;;;;5062130;28;20044;-66
2022/01/13 08:38:34;;;;;;;491.20;47.15;;;;;;;;;;5036510;28;20050;-67
2022/01/13 08:41:00;;;;;;;513.13;50.95;;;;;;;;;;5029760;28;20565;-66
2022/01/13 08:43:27;;;;;;;444.80;45.28;;;;;;;;;;5049032;28;20037;-66
2022/01/13 08:45:54;;;;;;;438.20;44.88;;;;;;;;;;5048506;28;20657;-66
2022/01/13 08:48:21;;;;;;;507.73;47.72;;;;;;;;;;5047878;28;20108;-66
2022/01/13 08:50:48;;;;;;;532.42;48.88;;;;;;;;;;5065143;28;20028;-66
2022/01/13 08:53:15;;;;;;;445.52;47.13;;;;;;;;;;5061238;28;20128;-66
2022/01/13 08:55:41;;;;;;;433.98;44.90;;;;;;;;;;5050713;28;20052;-65
2022/01/13 08:58:07;;;;;;;458.48;48.13;;;;;;;;;;5047808;28;20039;-66
2022/01/13 09:00:36;;;;;;;496.58;48.85;;;;;;;;;;5048805;28;20430;-66
2022/01/13 09:03:03;;;;;;;455.27;48.95;;;;;;;;;;5049162;28;20112;-66
2022/01/13 09:05:29;;;;;;;490.75;48.05;;;;;;;;;;5048919;28;20545;-66
2022/01/13 09:07:55;;;;;;;409.60;45.92;;;;;;;;;;5026194;28;20029;-66
2022/01/13 09:10:21;;;;;;;446.13;48.67;;;;;;;;;;5040744;28;20037;-65
2022/01/13 09:12:47;;;;;;;392.38;46.50;;;;;;;;;;5028322;28;20041;-66
2022/01/13 09:15:31;;;;;;;447.90;50.13;;;;;;;;;;5048094;28;20036;-66
2022/01/13 09:17:59;;;;;;;455.90;49.45;;;;;;;;;;5048321;28;20029;-66
2022/01/13 09:20:25;;;;;;;434.73;46.97;;;;;;;;;;5043878;28;20486;-66
2022/01/13 09:22:51;;;;;;;465.77;47.53;;;;;;;;;;5048050;28;20017;-68
2022/01/13 09:25:18;;;;;;;380.38;45.75;;;;;;;;;;5067655;28;20106;-66
2022/01/13 09:27:44;;;;;;;335.73;44.85;;;;;;;;;;5069710;28;20078;-67
2022/01/13 09:30:10;;;;;;;495.75;52.95;;;;;;;;;;5071327;28;20410;-66
2022/01/13 09:32:36;;;;;;;502.83;53.35;;;;;;;;;;5071388;28;20493;-66
2022/01/13 09:35:04;;;;;;;459.30;50.35;;;;;;;;;;5069312;28;20094;-65
2022/01/13 09:37:30;;;;;;;394.92;48.53;;;;;;;;;;5053074;28;20065;-65
2022/01/13 09:39:56;;;;;;;446.10;48.92;;;;;;;;;;5053077;28;20029;-65
2022/01/13 09:42:22;;;;;;;485.13;53.03;;;;;;;;;;5051973;28;20033;-65
2022/01/13 09:44:49;;;;;;;462.00;52.58;;;;;;;;;;5066260;28;20029;-65
2022/01/13 09:47:15;;;;;;;485.77;52.92;;;;;;;;;;5073053;28;20062;-65
2022/01/13 09:49:43;;;;;;;457.30;51.33;;;;;;;;;;5041647;28;20120;-65
2022/01/13 09:52:10;;;;;;;494.00;50.92;;;;;;;;;;5047498;28;20035;-65
2022/01/13 09:54:36;;;;;;;394.52;48.25;;;;;;;;;;5044426;28;20071;-65
2022/01/13 09:57:02;;;;;;;390.90;50.13;;;;;;;;;;5049593;28;20060;-65
2022/01/13 09:59:28;;;;;;;422.73;50.08;;;;;;;;;;5043400;28;20029;-65
2022/01/13 10:01:54;;;;;;;473.52;54.38;;;;;;;;;;5045608;28;20042;-66
2022/01/13 10:04:20;;;;;;;421.52;49.00;;;;;;;;;;5050354;28;20100;-64
2022/01/13 10:06:47;;;;;;;418.58;50.67;;;;;;;;;;5053009;28;20108;-66
2022/01/13 10:09:13;;;;;;;413.30;49.03;;;;;;;;;;5043075;28;20115;-64
2022/01/13 10:11:44;;;;;;;435.30;51.08;;;;;;;;;;5055650;28;20036;-64
2022/01/13 10:16:54;;;;;;;378.40;47.33;;;;;;;;;;5042786;28;20030;-65
2022/01/13 10:19:32;;;;;;;514.05;54.90;;;;;;;;;;5045333;28;20508;-65
2022/01/13 10:22:03;;;;;;;461.42;53.53;;;;;;;;;;5051551;28;20033;-65
2022/01/13 10:24:30;;;;;;;388.50;49.10;;;;;;;;;;5042760;28;20021;-66
2022/01/13 10:26:58;;;;;;;340.08;49.38;;;;;;;;;;5049839;28;20033;-65
2022/01/13 10:29:36;;;;;;;300.48;45.75;;;;;;;;;;5052518;28;20120;-66
2022/01/13 10:32:02;;;;;;;306.90;47.25;;;;;;;;;;5051378;28;20025;-65
2022/01/13 10:34:28;;;;;;;243.52;45.08;;;;;;;;;;5038110;28;20038;-66
2022/01/13 10:37:18;;;;;;;270.80;44.30;;;;;;;;;;5032284;28;20183;-65
2022/01/13 10:39:46;;;;;;;241.02;44.70;;;;;;;;;;5050556;28;20517;-65
2022/01/13 10:42:30;;;;;;;237.75;45.55;;;;;;;;;;5066056;28;20083;-67
2022/01/13 10:44:56;;;;;;;185.55;38.50;;;;;;;;;;5050312;28;20040;-65
2022/01/13 10:47:22;;;;;;;168.30;39.70;;;;;;;;;;5047466;28;20028;-66
2022/01/13 10:49:50;;;;;;;192.55;39.88;;;;;;;;;;5046469;28;20068;-64
2022/01/13 10:52:24;;;;;;;166.75;38.55;;;;;;;;;;5054748;28;20038;-64
2022/01/13 10:54:51;;;;;;;173.13;40.30;;;;;;;;;;5044625;28;20041;-64
2022/01/13 10:57:18;;;;;;;157.15;39.25;;;;;;;;;;5048693;28;20044;-65
2022/01/13 10:59:45;;;;;;;165.80;42.83;;;;;;;;;;5044499;28;20074;-64
2022/01/13 11:02:11;;;;;;;174.27;41.15;;;;;;;;;;5050275;28;20021;-66
2022/01/13 11:04:37;;;;;;;210.02;40.40;;;;;;;;;;5047629;28;20083;-64
2022/01/13 11:07:17;;;;;;;200.90;38.80;;;;;;;;;;5033933;28;20030;-65
2022/01/13 11:09:51;;;;;;;193.57;37.58;;;;;;;;;;5052306;28;20025;-65
2022/01/13 11:12:17;;;;;;;181.85;38.17;;;;;;;;;;5054162;28;20069;-65
2022/01/13 11:14:45;;;;;;;163.35;41.38;;;;;;;;;;5056550;28;20028;-65
2022/01/13 11:17:11;;;;;;;195.10;40.28;;;;;;;;;;5039734;28;20059;-65
2022/01/13 11:19:41;;;;;;;180.07;41.05;;;;;;;;;;5056589;28;20033;-65
2022/01/13 11:22:08;;;;;;;182.82;40.97;;;;;;;;;;5064765;28;20046;-65
2022/01/13 11:24:35;;;;;;;186.93;39.78;;;;;;;;;;5040045;28;20044;-65
2022/01/13 11:27:03;;;;;;;178.10;42.00;;;;;;;;;;5047641;28;20029;-65
2022/01/13 11:29:29;;;;;;;196.15;40.08;;;;;;;;;;5046757;28;20037;-65
2022/01/13 11:31:56;;;;;;;190.20;38.08;;;;;;;;;;5050432;28;20107;-66
2022/01/13 11:34:23;;;;;;;192.20;40.55;;;;;;;;;;5043934;28;20096;-65
2022/01/13 11:36:49;;;;;;;224.95;42.08;;;;;;;;;;5050068;28;20033;-66
2022/01/13 11:39:15;;;;;;;190.93;39.75;;;;;;;;;;5056433;28;20105;-66
2022/01/13 11:42:01;;;;;;;180.30;41.40;;;;;;;;;;5070915;28;20021;-66
2022/01/13 11:44:27;;;;;;;219.35;41.78;;;;;;;;;;5054085;28;20108;-65
2022/01/13 11:46:53;;;;;;;259.23;46.85;;;;;;;;;;5044037;28;20478;-65
2022/01/13 11:49:33;;;;;;;244.93;47.35;;;;;;;;;;5042391;28;20486;-66
2022/01/13 11:52:12;;;;;;;255.45;46.15;;;;;;;;;;5031066;28;20048;-66
2022/01/13 11:54:39;;;;;;;296.67;45.50;;;;;;;;;;5048484;28;20036;-66
2022/01/13 11:57:11;;;;;;;253.02;43.13;;;;;;;;;;5043129;28;20034;-65
2022/01/13 11:59:37;;;;;;;316.80;45.78;;;;;;;;;;5051191;28;20044;-66
2022/01/13 12:02:35;;;;;;;286.63;43.13;;;;;;;;;;5069136;28;20047;-65
2022/01/13 12:05:07;;;;;;;253.70;40.90;;;;;;;;;;5027293;28;20038;-65
2022/01/13 12:07:43;;;;;;;280.95;41.10;;;;;;;;;;5030619;28;20474;-65
2022/01/13 12:10:10;;;;;;;317.17;41.38;;;;;;;;;;5044728;28;20107;-65
2022/01/13 12:12:37;;;;;;;240.43;39.08;;;;;;;;;;5050057;28;20119;-65
2022/01/13 12:15:24;;;;;;;289.70;43.65;;;;;;;;;;5050036;28;20119;-66
2022/01/13 12:17:51;;;;;;;241.13;39.75;;;;;;;;;;5045302;28;20040;-65
2022/01/13 12:20:26;;;;;;;288.67;39.95;;;;;;;;;;5057634;28;20103;-66
2022/01/13 12:23:03;;;;;;;250.45;41.72;;;;;;;;;;5062572;28;20025;-66
2022/01/13 12:25:31;;;;;;;271.05;43.28;;;;;;;;;;5046675;28;20028;-65
2022/01/13 12:27:59;;;;;;;236.65;41.80;;;;;;;;;;5050359;28;20031;-65
2022/01/13 12:30:29;;;;;;;243.80;41.80;;;;;;;;;;5058375;28;20520;-66
2022/01/13 12:32:56;;;;;;;217.83;40.90;;;;;;;;;;5062122;28;20256;-66
2022/01/13 12:35:22;;;;;;;209.90;40.40;;;;;;;;;;5045994;28;20040;-65
2022/01/13 12:38:07;;;;;;;217.43;42.92;;;;;;;;;;5064874;28;20047;-65
2022/01/13 12:40:34;;;;;;;192.70;40.55;;;;;;;;;;5041498;28;20029;-65
2022/01/13 12:43:13;;;;;;;202.60;40.65;;;;;;;;;;5036199;28;20029;-65
2022/01/13 12:45:39;;;;;;;197.43;40.25;;;;;;;;;;5049632;28;20086;-66
2022/01/13 12:48:06;;;;;;;195.43;43.20;;;;;;;;;;5046026;28;20784;-66
2022/01/13 12:50:35;;;;;;;200.82;41.28;;;;;;;;;;5052992;28;20501;-66
2022/01/13 12:53:16;;;;;;;186.55;42.08;;;;;;;;;;5032145;28;20033;-67
2022/01/13 12:55:43;;;;;;;211.27;42.80;;;;;;;;;;5045616;28;20029;-65
2022/01/13 12:58:10;;;;;;;182.70;41.25;;;;;;;;;;5030164;28;20041;-65
2022/01/13 13:00:36;;;;;;;208.93;41.80;;;;;;;;;;5061432;28;20028;-65
2022/01/13 13:03:07;;;;;;;197.45;41.03;;;;;;;;;;5062927;28;20021;-65
2022/01/13 13:05:44;;;;;;;173.30;39.47;;;;;;;;;;5033167;28;20036;-65
2022/01/13 13:08:13;;;;;;;165.23;40.88;;;;;;;;;;5035608;28;20059;-65
2022/01/13 13:10:43;;;;;;;176.40;42.42;;;;;;;;;;5063690;28;20051;-65
2022/01/13 13:13:09;;;;;;;175.70;42.80;;;;;;;;;;5058036;28;20055;-66
2022/01/13 13:18:01;;;;;;;200.48;41.30;;;;;;;;;;5052733;28;20074;-66
2022/01/13 13:20:27;;;;;;;162.77;39.85;;;;;;;;;;5057208;28;20036;-66
2022/01/13 13:22:56;;;;;;;183.45;43.53;;;;;;;;;;5051564;28;20379;-66
2022/01/13 13:25:27;;;;;;;146.57;38.63;;;;;;;;;;5036091;28;20053;-66
2022/01/13 13:27:53;;;;;;;170.35;39.28;;;;;;;;;;5040317;28;20108;-66
2022/01/13 13:30:19;;;;;;;162.73;41.28;;;;;;;;;;5053362;28;20021;-65
2022/01/13 13:32:52;;;;;;;145.07;39.55;;;;;;;;;;5052470;28;20426;-65
2022/01/13 13:35:19;;;;;;;157.25;40.97;;;;;;;;;;5049828;28;20051;-65
2022/01/13 13:37:45;;;;;;;135.65;40.60;;;;;;;;;;5051769;28;20075;-66
2022/01/13 13:40:21;;;;;;;154.50;43.33;;;;;;;;;;5058577;28;20109;-66
2022/01/13 13:43:00;;;;;;;148.75;42.47;;;;;;;;;;5052366;28;20067;-67
2022/01/13 13:45:26;;;;;;;152.02;42.50;;;;;;;;;;5051257;28;20124;-65
2022/01/13 13:47:59;;;;;;;146.52;41.33;;;;;;;;;;5053811;28;20033;-66
2022/01/13 13:50:25;;;;;;;140.25;41.83;;;;;;;;;;5038872;28;20439;-65
2022/01/13 13:53:05;;;;;;;160.38;44.85;;;;;;;;;;5041449;28;20038;-66
2022/01/13 13:55:31;;;;;;;148.18;43.80;;;;;;;;;;5051817;28;20059;-66
2022/01/13 13:57:57;;;;;;;164.77;45.63;;;;;;;;;;5053461;28;20548;-66
2022/01/13 14:00:26;;;;;;;169.98;45.80;;;;;;;;;;5050031;28;20569;-65
2022/01/13 14:02:54;;;;;;;171.27;45.97;;;;;;;;;;5050098;28;20104;-66
2022/01/13 14:05:27;;;;;;;148.15;44.67;;;;;;;;;;5046065;28;20025;-65
2022/01/13 14:07:53;;;;;;;146.63;44.72;;;;;;;;;;5043333;28;20041;-66
2022/01/13 14:10:22;;;;;;;161.00;44.15;;;;;;;;;;5040063;28;20117;-65
2022/01/13 14:13:00;;;;;;;142.90;44.75;;;;;;;;;;5048056;28;20036;-64
2022/01/13 14:15:30;;;;;;;162.05;44.20;;;;;;;;;;5056183;28;20090;-65
2022/01/13 14:17:58;;;;;;;140.23;43.58;;;;;;;;;;5043957;28;20512;-65
2022/01/13 14:20:25;;;;;;;165.75;48.58;;;;;;;;;;5058373;28;20134;-65
2022/01/13 14:22:55;;;;;;;165.43;48.55;;;;;;;;;;5050718;28;20486;-65
2022/01/13 14:25:21;;;;;;;159.77;46.17;;;;;;;;;;5050406;28;20037;-65
2022/01/13 14:27:51;;;;;;;171.48;46.58;;;;;;;;;;5046147;28;20039;-65